createdAt,value
2018-02-04T00:00:20.064Z,76.16
2018-02-04T00:01:00.477Z,76.35
2018-02-04T00:01:41.088Z,76.44
2018-02-04T00:02:21.568Z,75.96
2018-02-04T00:03:02.983Z,75.49
2018-02-04T00:03:43.459Z,75.87
2018-02-04T00:04:24.574Z,75.78
2018-02-04T00:05:06.805Z,76.25
2018-02-04T00:05:47.353Z,75.78
2018-02-04T00:06:28.291Z,75.78
2018-02-04T00:07:10.103Z,75.4
2018-02-04T00:07:59.229Z,75.4
2018-02-04T00:08:43.484Z,75.78
2018-02-04T00:09:23.881Z,76.06
2018-02-04T00:10:04.310Z,76.16
2018-02-04T00:10:45.089Z,76.16
2018-02-04T00:11:25.971Z,76.16
2018-02-04T00:12:06.737Z,76.16
2018-02-04T00:12:48.005Z,75.96
2018-02-04T00:13:30.320Z,75.3
2018-02-04T00:14:12.183Z,76.06
2018-02-04T00:14:53.503Z,75.21
2018-02-04T00:15:33.995Z,75.59
2018-02-04T00:16:16.947Z,75.49
2018-02-04T00:16:57.634Z,75.3
2018-02-04T00:17:38.503Z,75.21
2018-02-04T00:18:19.706Z,75.21
2018-02-04T00:19:01.014Z,75.4
2018-02-04T00:19:42.186Z,75.21
2018-02-04T00:21:47.819Z,75.4
2018-02-04T00:22:41.409Z,74.73
2018-02-04T00:23:34.830Z,74.73
2018-02-04T00:24:27.604Z,74.63
2018-02-04T00:25:21.233Z,74.16
2018-02-04T00:26:14.872Z,74.16
2018-02-04T00:27:08.074Z,74.16
2018-02-04T00:28:01.767Z,74.44
2018-02-04T00:28:54.538Z,74.01
2018-02-04T00:29:46.855Z,73.72
2018-02-04T00:30:39.856Z,73.44
2018-02-04T00:31:32.451Z,73.34
2018-02-04T00:32:24.783Z,72.96
2018-02-04T00:33:17.070Z,72.86
2018-02-04T00:34:11.356Z,72.92
2018-02-04T00:35:04.418Z,73.11
2018-02-04T00:35:56.747Z,73.69
2018-02-04T00:37:00.718Z,73.59
2018-02-04T00:37:53.890Z,74.07
2018-02-04T00:38:51.326Z,74.26
2018-02-04T00:39:47.528Z,73.69
2018-02-04T00:40:39.367Z,73.69
2018-02-04T00:41:32.057Z,73.78
2018-02-04T00:42:24.553Z,74.35
2018-02-04T00:43:17.200Z,74.44
2018-02-04T00:44:09.262Z,73.78
2018-02-04T00:45:01.759Z,73.97
2018-02-04T00:45:54.151Z,73.97
2018-02-04T00:46:46.356Z,74.26
2018-02-04T00:47:38.887Z,74.35
2018-02-04T00:48:30.922Z,74.82
2018-02-04T00:49:23.005Z,74.26
2018-02-04T00:50:15.233Z,74.07
2018-02-04T00:51:08.279Z,74.82
2018-02-04T00:52:01.854Z,74.07
2018-02-04T00:52:54.252Z,74.82
2018-02-04T00:53:46.916Z,74.35
2018-02-04T00:54:39.609Z,74.26
2018-02-04T00:55:31.834Z,74.63
2018-02-04T00:56:24.073Z,73.88
2018-02-04T00:57:16.439Z,74.16
2018-02-04T00:58:08.341Z,74.26
2018-02-04T00:59:00.634Z,75.4
2018-02-04T00:59:53.023Z,75.4
2018-02-04T01:00:45.976Z,75.21
2018-02-04T01:01:38.548Z,75.21
2018-02-04T01:02:30.734Z,75.36
2018-02-04T01:03:23.593Z,75.96
2018-02-04T01:04:16.165Z,75.96
2018-02-04T01:05:08.711Z,76.44
2018-02-04T01:06:01.168Z,75.4
2018-02-04T01:06:55.020Z,75.02
2018-02-04T01:07:47.302Z,74.92
2018-02-04T01:08:39.763Z,75.02
2018-02-04T01:09:31.966Z,74.73
2018-02-04T01:10:24.386Z,74.82
2018-02-04T01:11:17.867Z,75.55
2018-02-04T01:12:10.325Z,75.4
2018-02-04T01:13:02.799Z,75.93
2018-02-04T01:15:13.046Z,76.25
2018-02-04T01:16:05.418Z,75.96
2018-02-04T01:16:57.955Z,75.78
2018-02-04T01:17:50.270Z,75.49
2018-02-04T01:18:43.153Z,75.59
2018-02-04T01:19:35.427Z,75.26
2018-02-04T01:20:27.928Z,75.93
2018-02-04T01:21:20.596Z,76.03
2018-02-04T01:22:12.987Z,75.55
2018-02-04T01:23:06.482Z,75.93
2018-02-04T01:24:00.705Z,75.36
2018-02-04T01:24:54.006Z,75.89
2018-02-04T01:25:48.405Z,76.56
2018-02-04T01:26:41.754Z,76.37
2018-02-04T01:27:36.817Z,77.03
2018-02-04T01:28:29.334Z,76.46
2018-02-04T01:29:22.944Z,77.03
2018-02-04T01:30:20.336Z,76.37
2018-02-04T01:31:13.055Z,76.75
2018-02-04T01:32:05.688Z,76.56
2018-02-04T01:32:59.356Z,77.28
2018-02-04T01:33:51.385Z,77.47
2018-02-04T01:34:44.516Z,77.84
2018-02-04T01:35:37.557Z,78.32
2018-02-04T01:36:29.906Z,79.27
2018-02-04T01:37:25.597Z,79.23
2018-02-04T01:38:18.569Z,79.94
2018-02-04T01:39:11.291Z,79.71
2018-02-04T01:40:05.530Z,79.8
2018-02-04T01:40:59.453Z,79.71
2018-02-04T01:41:51.620Z,80.27
2018-02-04T01:42:44.909Z,79.94
2018-02-04T01:43:41.095Z,79.74
2018-02-04T01:44:32.894Z,78.95
2018-02-04T01:45:27.090Z,79.23
2018-02-04T01:46:19.948Z,80.08
2018-02-04T01:47:12.485Z,79.8
2018-02-04T01:48:04.776Z,80.27
2018-02-04T01:48:58.113Z,80.56
2018-02-04T01:49:50.955Z,79.71
2018-02-04T01:50:45.368Z,80.46
2018-02-04T01:51:37.688Z,78.66
2018-02-04T01:52:29.893Z,78.75
2018-02-04T01:53:23.045Z,78.95
2018-02-04T01:54:17.798Z,78.95
2018-02-04T01:55:11.639Z,78.75
2018-02-04T01:59:39.624Z,77.9
2018-02-04T02:00:27.060Z,76.71
2018-02-04T02:01:20.519Z,76.76
2018-02-04T02:03:09.523Z,76.01
2018-02-04T02:04:03.334Z,76.2
2018-02-04T02:04:55.862Z,76.01
2018-02-04T02:05:48.810Z,76.1
2018-02-04T02:06:41.373Z,76.95
2018-02-04T02:07:33.487Z,76.67
2018-02-04T02:08:27.724Z,76.29
2018-02-04T02:09:20.174Z,76.67
2018-02-04T02:10:13.539Z,76.67
2018-02-04T02:11:06.781Z,76.2
2018-02-04T02:11:59.148Z,76.1
2018-02-04T02:12:51.150Z,76.86
2018-02-04T02:13:43.410Z,76.95
2018-02-04T02:14:35.763Z,76.2
2018-02-04T02:15:28.387Z,75.81
2018-02-04T02:16:20.157Z,76.57
2018-02-04T02:17:12.738Z,77.14
2018-02-04T02:18:05.776Z,77.81
2018-02-04T02:18:57.547Z,76.29
2018-02-04T02:19:51.377Z,77.62
2018-02-04T02:20:43.399Z,76.48
2018-02-04T02:21:35.589Z,77.11
2018-02-04T02:22:27.709Z,77.01
2018-02-04T02:23:21.499Z,77.48
2018-02-04T02:24:17.552Z,77.58
2018-02-04T02:25:11.120Z,77.58
2018-02-04T02:26:03.279Z,77.77
2018-02-04T02:26:55.659Z,77.2
2018-02-04T02:27:49.129Z,77.77
2018-02-04T02:28:59.919Z,77.01
2018-02-04T02:29:52.081Z,76.82
2018-02-04T02:30:46.668Z,77.33
2018-02-04T02:31:41.114Z,76.15
2018-02-04T02:32:37.460Z,75.96
2018-02-04T02:33:28.909Z,75.96
2018-02-04T02:35:33.736Z,76.54
2018-02-04T02:37:43.741Z,76.92
2018-02-04T02:38:30.864Z,76.34
2018-02-04T02:39:12.315Z,76.92
2018-02-04T02:39:53.472Z,76.73
2018-02-04T02:40:35.031Z,76.92
2018-02-04T02:41:16.800Z,76.15
2018-02-04T02:41:57.508Z,75.96
2018-02-04T02:42:37.609Z,75.68
2018-02-04T02:43:18.388Z,75.21
2018-02-04T02:43:58.586Z,75.21
2018-02-04T02:44:38.932Z,75.59
2018-02-04T02:45:19.813Z,77.39
2018-02-04T02:46:00.614Z,76.92
2018-02-04T02:46:45.022Z,76.15
2018-02-04T02:47:25.555Z,75.87
2018-02-04T02:48:06.059Z,74.92
2018-02-04T02:48:46.521Z,75.21
2018-02-04T02:49:27.392Z,75.21
2018-02-04T02:50:07.534Z,75.78
2018-02-04T02:50:48.924Z,75.68
2018-02-04T02:51:29.926Z,74.87
2018-02-04T02:52:11.664Z,74.68
2018-02-04T02:52:53.768Z,74.11
2018-02-04T02:53:34.627Z,73.82
2018-02-04T02:54:15.177Z,74.01
2018-02-04T02:54:55.670Z,74.68
2018-02-04T02:55:37.018Z,74.68
2018-02-04T02:56:17.280Z,73.97
2018-02-04T02:56:57.757Z,74.16
2018-02-04T02:57:39.370Z,74.54
2018-02-04T02:58:20.723Z,74.45
2018-02-04T02:59:02.117Z,74.16
2018-02-04T02:59:42.928Z,74.45
2018-02-04T03:00:24.254Z,74.73
2018-02-04T03:01:05.615Z,74.16
2018-02-04T03:01:46.044Z,74.83
2018-02-04T03:02:27.374Z,74.64
2018-02-04T03:03:08.588Z,74.64
2018-02-04T03:03:49.028Z,74.07
2018-02-04T03:04:29.479Z,73.5
2018-02-04T03:05:10.585Z,73.12
2018-02-04T03:07:35.178Z,74.64
2018-02-04T03:08:24.670Z,74.83
2018-02-04T03:09:09.401Z,74.54
2018-02-04T03:09:51.302Z,73.97
2018-02-04T03:10:33.425Z,74.54
2018-02-04T03:11:14.254Z,75.21
2018-02-04T03:11:55.509Z,74.26
2018-02-04T03:12:36.493Z,75.02
2018-02-04T03:13:17.484Z,75.87
2018-02-04T03:13:58.315Z,75.07
2018-02-04T03:14:38.669Z,75.68
2018-02-04T03:15:21.346Z,74.73
2018-02-04T03:16:01.710Z,73.97
2018-02-04T03:16:44.038Z,73.79
2018-02-04T03:17:24.962Z,75.07
2018-02-04T03:18:05.289Z,74.73
2018-02-04T03:18:47.425Z,73.75
2018-02-04T03:19:28.895Z,74.45
2018-02-04T03:20:09.510Z,74.32
2018-02-04T03:20:49.694Z,74.6
2018-02-04T03:21:30.079Z,74.83
2018-02-04T03:22:10.466Z,74.92
2018-02-04T03:22:51.367Z,74.73
2018-02-04T03:23:33.305Z,74.64
2018-02-04T03:24:13.698Z,74.03
2018-02-04T03:30:39.095Z,74.03
2018-02-04T03:31:28.414Z,74.6
2018-02-04T03:32:17.439Z,74.69
2018-02-04T03:33:06.383Z,74.64
2018-02-04T03:34:00.327Z,74.73
2018-02-04T03:34:55.173Z,75.96
2018-02-04T03:35:43.890Z,75.31
2018-02-04T03:36:33.675Z,75.21
2018-02-04T03:37:27.056Z,74.54
2018-02-04T03:38:16.015Z,74.64
2018-02-04T03:39:03.593Z,74.07
2018-02-04T03:39:53.537Z,74.16
2018-02-04T03:40:45.205Z,73.6
2018-02-04T03:41:29.399Z,74.45
2018-02-04T03:42:10.178Z,73.79
2018-02-04T03:42:50.880Z,73.12
2018-02-04T03:43:31.388Z,72.84
2018-02-04T03:44:13.858Z,72.93
2018-02-04T03:44:55.224Z,73.12
2018-02-04T03:45:36.174Z,73.75
2018-02-04T03:46:17.271Z,73.94
2018-02-04T03:46:58.495Z,74.88
2018-02-04T03:47:38.513Z,75.68
2018-02-04T03:48:20.850Z,75.59
2018-02-04T03:49:01.964Z,74.64
2018-02-04T03:49:42.783Z,74.83
2018-02-04T03:50:23.414Z,74.54
2018-02-04T03:51:09.604Z,73.97
2018-02-04T03:51:51.007Z,73.79
2018-02-04T03:52:33.701Z,74.54
2018-02-04T03:53:14.710Z,73.37
2018-02-04T03:53:54.573Z,73.94
2018-02-04T03:55:47.030Z,73.08
2018-02-04T03:56:36.851Z,74.98
2018-02-04T03:57:27.275Z,74.22
2018-02-04T03:58:15.492Z,73.75
2018-02-04T03:59:04.339Z,74.6
2018-02-04T03:59:56.078Z,75.74
2018-02-04T04:00:49.008Z,74.88
2018-02-04T04:01:35.481Z,74.22
2018-02-04T04:02:26.865Z,74.51
2018-02-04T04:45:31.984Z,72.61
2018-02-04T04:46:22.985Z,72.61
2018-02-04T04:47:15.424Z,73.65
2018-02-04T04:48:09.095Z,73.14
2018-02-04T04:49:01.638Z,74.13
2018-02-04T04:49:55.425Z,74.03
2018-02-04T04:50:47.587Z,74.6
2018-02-04T04:51:40.365Z,74.13
2018-02-04T04:52:31.931Z,72.71
2018-02-04T04:53:25.800Z,73.18
2018-02-04T04:54:18.899Z,72.52
2018-02-04T04:55:12.399Z,72.04
2018-02-04T04:56:04.508Z,72.23
2018-02-04T04:56:57.587Z,72.33
2018-02-04T04:57:50.301Z,72.71
2018-02-04T04:58:42.665Z,72.19
2018-02-04T04:59:35.039Z,71.81
2018-02-04T05:00:27.478Z,72.48
2018-02-04T05:01:19.916Z,71.72
2018-02-04T05:02:13.026Z,72.29
2018-02-04T05:03:05.444Z,72.19
2018-02-04T05:03:58.225Z,72.77
2018-02-04T05:04:50.616Z,72.57
2018-02-04T05:05:43.123Z,72.67
2018-02-04T05:06:35.604Z,72.99
2018-02-04T05:07:28.437Z,71.85
2018-02-04T05:08:20.760Z,71.72
2018-02-04T05:09:14.078Z,70.9
2018-02-04T05:10:21.498Z,71.85
2018-02-04T05:11:13.478Z,72.23
2018-02-04T05:12:06.162Z,71.85
2018-02-04T05:12:59.438Z,71.47
2018-02-04T05:13:51.981Z,70.53
2018-02-04T05:14:44.114Z,70.53
2018-02-04T05:15:36.472Z,70.53
2018-02-04T05:16:30.032Z,70.72
2018-02-04T05:17:22.428Z,69.67
2018-02-04T05:18:17.187Z,69.77
2018-02-04T05:19:09.592Z,70.9
2018-02-04T05:20:01.741Z,70.43
2018-02-04T05:20:53.958Z,70.72
2018-02-04T05:21:46.125Z,70.43
2018-02-04T05:22:39.079Z,69.67
2018-02-04T05:23:31.597Z,71
2018-02-04T05:24:23.899Z,70.53
2018-02-04T05:25:15.967Z,70.43
2018-02-04T05:26:07.874Z,71.19
2018-02-04T05:27:02.747Z,69.86
2018-02-04T05:27:56.400Z,69.77
2018-02-04T05:28:48.487Z,69.29
2018-02-04T05:29:41.603Z,69.01
2018-02-04T05:30:33.925Z,69.67
2018-02-04T05:31:27.327Z,70.81
2018-02-04T05:32:22.483Z,70.62
2018-02-04T05:33:15.521Z,69.96
2018-02-04T05:34:09.502Z,68.73
2018-02-04T05:35:02.073Z,69.2
2018-02-04T05:35:54.844Z,68.35
2018-02-04T05:36:49.129Z,68.15
2018-02-04T05:37:43.856Z,68.54
2018-02-04T05:38:36.339Z,68.54
2018-02-04T05:39:28.794Z,68.25
2018-02-04T05:40:21.983Z,67.96
2018-02-04T05:41:14.172Z,67.11
2018-02-04T05:42:07.064Z,67.49
2018-02-04T05:42:59.723Z,67.49
2018-02-04T05:43:52.008Z,67.87
2018-02-04T05:44:43.986Z,68.25
2018-02-04T05:45:35.967Z,68.63
2018-02-04T05:46:28.346Z,68.25
2018-02-04T05:47:21.137Z,67.96
2018-02-04T05:48:13.492Z,67.96
2018-02-04T05:49:06.009Z,68.73
2018-02-04T05:49:58.096Z,67.96
2018-02-04T05:50:51.694Z,67.77
2018-02-04T05:51:43.772Z,66.74
2018-02-04T05:52:37.302Z,67.96
2018-02-04T05:53:29.309Z,67.49
2018-02-04T05:54:21.537Z,67.02
2018-02-04T05:55:14.082Z,66.26
2018-02-04T05:56:07.115Z,66.54
2018-02-04T05:56:59.414Z,66.07
2018-02-04T05:57:52.190Z,66.32
2018-02-04T05:58:46.007Z,67.74
2018-02-04T05:59:37.971Z,67.55
2018-02-04T06:00:31.870Z,67.18
2018-02-04T06:01:23.922Z,66.89
2018-02-04T06:02:16.634Z,68.31
2018-02-04T06:03:09.946Z,68.4
2018-02-04T06:04:02.476Z,67.46
2018-02-04T06:04:55.385Z,68.79
2018-02-04T06:05:47.172Z,67.65
2018-02-04T06:06:39.508Z,67.74
2018-02-04T06:07:33.506Z,67.74
2018-02-04T06:08:26.964Z,67.08
2018-02-04T06:09:20.494Z,66.41
2018-02-04T06:10:13.089Z,67.93
2018-02-04T06:11:05.201Z,67.58
2018-02-04T06:11:57.460Z,66.93
2018-02-04T06:12:51.040Z,67.11
2018-02-04T06:13:43.109Z,67.46
2018-02-04T06:14:35.604Z,66.83
2018-02-04T06:15:28.177Z,66.93
2018-02-04T06:16:19.991Z,65.28
2018-02-04T06:17:12.536Z,65.94
2018-02-04T06:18:04.828Z,65.75
2018-02-04T06:19:00.134Z,65.56
2018-02-04T06:19:53.232Z,65.56
2018-02-04T06:20:44.896Z,65.56
2018-02-04T06:21:36.862Z,65.37
2018-02-04T06:22:29.949Z,65.75
2018-02-04T06:23:22.015Z,67.36
2018-02-04T06:24:14.434Z,64.81
2018-02-04T06:25:06.993Z,65.09
2018-02-04T06:25:59.953Z,65.94
2018-02-04T06:26:52.427Z,64.81
2018-02-04T06:27:37.383Z,64.04
2018-02-04T06:28:18.354Z,64.33
2018-02-04T06:28:58.785Z,64.14
2018-02-04T06:29:40.054Z,64.81
2018-02-04T06:30:21.364Z,64.23
2018-02-04T06:34:25.108Z,62.82
2018-02-04T06:35:17.044Z,64.33
2018-02-04T06:36:09.151Z,62.91
2018-02-04T06:37:02.822Z,62.82
2018-02-04T06:37:55.939Z,62.72
2018-02-04T06:38:48.577Z,61.96
2018-02-04T06:39:40.688Z,62.62
2018-02-04T06:40:32.989Z,62.24
2018-02-04T06:41:25.715Z,61.4
2018-02-04T06:42:26.546Z,61.96
2018-02-04T06:43:18.999Z,61.21
2018-02-04T06:44:11.192Z,61.49
2018-02-04T06:45:03.841Z,61.87
2018-02-04T06:45:56.322Z,60.73
2018-02-04T06:46:48.460Z,59.78
2018-02-04T06:47:40.426Z,59.78
2018-02-04T06:48:32.547Z,60.16
2018-02-04T06:49:24.670Z,61.87
2018-02-04T06:50:19.574Z,62.34
2018-02-04T06:51:11.933Z,62.72
2018-02-04T06:52:03.949Z,62.24
2018-02-04T06:54:37.829Z,60.83
2018-02-04T06:55:30.399Z,61.58
2018-02-04T06:56:22.772Z,60.16
2018-02-04T06:57:18.450Z,59.78
2018-02-04T06:58:26.897Z,59.78
2018-02-04T06:59:22.063Z,59.78
2018-02-04T07:00:18.825Z,60.16
2018-02-04T07:01:20.010Z,60.25
2018-02-04T07:55:42.062Z,58.86
2018-02-04T07:56:39.702Z,58.01
2018-02-04T07:57:32.833Z,58.67
2018-02-04T07:58:27.262Z,59.05
2018-02-04T07:59:32.922Z,58.61
2018-02-04T08:16:55.161Z,58.77
2018-02-04T08:17:44.735Z,59.91
2018-02-04T08:21:52.353Z,58.96
2018-02-04T08:25:41.049Z,59.81
2018-02-04T08:34:56.802Z,59.91
2018-02-04T09:10:41.225Z,58.61
2018-02-04T09:12:35.668Z,56.62
2018-02-04T09:13:27.622Z,55.48
2018-02-04T09:17:29.829Z,60.06
2018-02-04T09:18:18.539Z,57.79
2018-02-04T09:19:08.361Z,55.89
2018-02-04T09:19:57.882Z,54.85
2018-02-04T09:20:53.976Z,56.49
2018-02-04T09:22:52.026Z,54.43
2018-02-04T09:23:42.995Z,53.31
2018-02-04T09:25:42.242Z,50.1
2018-02-04T09:29:18.536Z,46.4
2018-02-04T09:30:01.799Z,46.4
2018-02-04T09:33:54.659Z,45.47
2018-02-04T09:35:56.838Z,44.04
2018-02-04T10:46:27.290Z,56.99
2018-02-04T10:47:30.192Z,56.68
2018-02-04T10:48:22.550Z,56.68
2018-02-04T10:51:50.649Z,58.2
2018-02-04T11:03:14.874Z,57.75
2018-02-04T11:04:04.830Z,57.09
2018-02-04T11:04:55.983Z,56.68
2018-02-04T11:07:00.809Z,57.72
2018-02-04T11:11:01.362Z,58.29
2018-02-04T11:14:50.640Z,58.22
2018-02-04T11:16:58.608Z,58.51
2018-02-04T11:17:47.106Z,57.65
2018-02-04T11:18:34.239Z,57.28
2018-02-04T11:19:22.494Z,57.75
2018-02-04T11:20:09.051Z,58.13
2018-02-04T11:20:58.190Z,58.32
2018-02-04T11:24:24.705Z,57.46
2018-02-04T11:25:17.650Z,57.65
2018-02-04T11:29:39.588Z,57.18
2018-02-04T11:40:28.434Z,54.45
2018-02-04T11:41:16.695Z,55.3
2018-02-04T11:42:05.396Z,56.23
2018-02-04T11:42:56.514Z,56.63
2018-02-04T11:48:30.832Z,56.63
2018-02-04T11:49:20.751Z,56.73
2018-02-04T11:51:53.769Z,56.07
2018-02-04T11:52:43.522Z,56.16
2018-02-04T11:55:29.883Z,56.63
2018-02-04T11:56:18.454Z,56.07
2018-02-04T11:57:08.679Z,55.88
2018-02-04T11:57:58.732Z,56.07
2018-02-04T11:59:07.107Z,56.26
2018-02-04T12:00:06.896Z,56.16
2018-02-04T12:00:53.777Z,56.07
2018-02-04T12:01:45.746Z,56.92
2018-02-04T12:02:36.810Z,56.45
2018-02-04T12:03:25.416Z,56.73
2018-02-04T12:07:48.998Z,57.87
2018-02-04T12:08:47.990Z,57.97
2018-02-04T12:23:08.510Z,60.25
2018-02-04T12:24:02.067Z,60.35
2018-02-04T12:28:06.773Z,60.69
2018-02-04T12:28:55.139Z,61.36
2018-02-04T12:29:43.062Z,60.98
2018-02-04T12:30:32.042Z,59.93
2018-02-04T12:31:21.418Z,61.36
2018-02-04T12:32:14.897Z,61.83
2018-02-04T12:35:01.013Z,61.36
2018-02-04T12:35:48.281Z,61.65
2018-02-04T12:47:08.510Z,67.21
2018-02-04T12:47:59.757Z,67.21
2018-02-04T12:53:19.220Z,68.44
2018-02-04T12:55:23.472Z,69.02
2018-02-04T12:58:38.154Z,68.44
2018-02-04T13:21:16.157Z,70.35
2018-02-04T13:38:19.013Z,70.44
2018-02-04T13:45:05.460Z,69.59
2018-02-04T13:46:04.021Z,70.15
2018-02-04T13:52:57.549Z,69.68
2018-02-04T14:10:06.279Z,62.37
2018-02-04T14:12:18.306Z,62.65
2018-02-04T14:17:07.502Z,62.56
2018-02-04T14:23:48.143Z,62.05
2018-02-04T14:26:24.438Z,62.43
2018-02-04T14:27:16.730Z,62.34
2018-02-04T14:28:09.497Z,62.62
2018-02-04T14:29:01.635Z,62.62
2018-02-04T14:29:53.288Z,62.43
2018-02-04T14:30:34.381Z,62.53
2018-02-04T14:31:15.700Z,62.15
2018-02-04T14:31:57.428Z,62.62
2018-02-04T14:34:07.213Z,62.05
2018-02-04T14:34:52.316Z,61.58
2018-02-04T14:35:32.825Z,61.1
2018-02-04T14:36:13.101Z,60.35
2018-02-04T14:36:54.364Z,60.72
2018-02-04T14:37:34.805Z,60.91
2018-02-04T14:38:17.764Z,61.01
2018-02-04T14:38:59.301Z,58.63
2018-02-04T14:39:40.586Z,57.11
2018-02-04T14:40:21.412Z,57.59
2018-02-04T14:41:01.707Z,58.25
2018-02-04T14:41:42.404Z,58.25
2018-02-04T14:42:22.972Z,57.78
2018-02-04T14:43:03.579Z,58.06
2018-02-04T14:43:43.962Z,57.4
2018-02-04T14:44:25.517Z,56.63
2018-02-04T14:45:06.254Z,56.54
2018-02-04T14:45:46.612Z,55.97
2018-02-04T14:46:27.991Z,57.3
2018-02-04T14:47:09.989Z,56.83
2018-02-04T14:47:52.063Z,56.54
2018-02-04T14:48:32.845Z,56.07
2018-02-04T14:49:13.617Z,56.07
2018-02-04T14:49:57.133Z,56.35
2018-02-04T14:50:39.992Z,55.11
2018-02-04T14:53:05.949Z,54.17
2018-02-04T14:53:58.425Z,56.04
2018-02-04T14:54:50.432Z,57.11
2018-02-04T14:55:42.378Z,56.63
2018-02-04T14:56:35.316Z,56.07
2018-02-04T14:57:28.243Z,54.55
2018-02-04T14:58:26.806Z,54.17
2018-02-04T14:59:19.029Z,54.45
2018-02-04T15:00:11.224Z,54.64
2018-02-04T15:02:24.523Z,53.59
2018-02-04T15:05:37.320Z,53.88
2018-02-04T15:11:19.981Z,52.08
2018-02-04T15:12:13.142Z,51.6
2018-02-04T15:13:05.342Z,52.08
2018-02-04T15:13:57.502Z,52.84
2018-02-04T15:14:49.675Z,52.72
2018-02-04T15:15:42.099Z,53.03
2018-02-04T15:16:35.228Z,53.03
2018-02-04T15:17:26.975Z,53.12
2018-02-04T15:18:21.111Z,51.98
2018-02-04T15:22:32.480Z,52.64
2018-02-04T15:23:20.653Z,50.84
2018-02-04T15:24:09.798Z,50.93
2018-02-04T15:25:00.217Z,50.43
2018-02-04T15:25:45.113Z,50.72
2018-02-04T15:26:26.077Z,51.79
2018-02-04T15:27:06.957Z,52.17
2018-02-04T15:27:49.197Z,51.6
2018-02-04T15:28:29.686Z,50.84
2018-02-04T15:29:12.114Z,50.93
2018-02-04T15:29:52.501Z,50.84
2018-02-04T15:30:33.082Z,50.18
2018-02-04T15:34:45.702Z,50.93
2018-02-04T15:35:38.528Z,51.41
2018-02-04T15:36:34.474Z,50.65
2018-02-04T15:37:27.771Z,50.65
2018-02-04T15:38:20.806Z,50.93
2018-02-04T15:39:14.369Z,50.74
2018-02-04T15:42:18.525Z,51.57
2018-02-04T15:43:09.481Z,51.86
2018-02-04T15:47:50.205Z,51.86
2018-02-04T15:50:14.938Z,52.91
2018-02-04T15:51:02.796Z,51.83
2018-02-04T15:53:08.135Z,53.64
2018-02-04T15:57:06.465Z,53.73
2018-02-04T15:57:59.141Z,54.11
2018-02-04T15:58:51.891Z,55.25
2018-02-04T16:01:23.491Z,53.83
2018-02-04T16:02:12.891Z,53.54
2018-02-04T16:02:53.557Z,54.11
2018-02-04T16:03:34.138Z,54.78
2018-02-04T16:43:37.309Z,60.79
2018-02-04T16:44:32.898Z,60.89
2018-02-04T16:45:28.141Z,60.79
2018-02-04T16:46:21.444Z,62.12
2018-02-04T16:47:13.907Z,61.74
2018-02-04T16:48:05.950Z,60.98
2018-02-04T16:48:59.269Z,62.5
2018-02-04T16:49:54.801Z,61.36
2018-02-04T16:51:13.844Z,59.84
2018-02-04T17:32:50.327Z,58.51
2018-02-04T17:33:43.651Z,57.85
2018-02-04T17:34:36.827Z,58.7
2018-02-04T17:35:29.230Z,57.95
2018-02-04T17:36:21.881Z,58.33
2018-02-04T17:37:14.301Z,57.09
2018-02-04T17:38:06.652Z,58.61
2018-02-04T17:38:59.521Z,58.51
2018-02-04T17:39:52.298Z,57.66
2018-02-04T17:40:44.174Z,57.76
2018-02-04T17:42:33.581Z,58.23
2018-02-04T17:43:24.464Z,58.14
2018-02-04T17:44:21.365Z,57.19
2018-02-04T17:45:13.664Z,56.9
2018-02-04T17:46:07.185Z,56.9
2018-02-04T17:47:00.834Z,57.19
2018-02-04T17:47:53.656Z,56.81
2018-02-04T17:48:46.545Z,56.62
2018-02-04T17:49:39.301Z,56.62
2018-02-04T17:50:31.047Z,56.71
2018-02-04T17:51:23.748Z,56.99
2018-02-04T17:52:16.689Z,56.99
2018-02-04T17:53:09.975Z,57.21
2018-02-04T17:54:02.904Z,56.46
2018-02-04T17:54:56.737Z,56.36
2018-02-04T17:55:48.595Z,56.55
2018-02-04T17:56:41.498Z,56.08
2018-02-04T17:57:34.208Z,56.08
2018-02-04T17:58:28.681Z,55.79
2018-02-04T17:59:22.163Z,55.79
2018-02-04T18:00:16.010Z,55.89
2018-02-04T18:01:09.074Z,56.58
2018-02-04T18:02:12.836Z,55.16
2018-02-04T18:03:08.912Z,55.54
2018-02-04T18:04:01.056Z,55.22
2018-02-04T18:29:03.689Z,55.79
2018-02-04T18:29:56.093Z,54.94
2018-02-04T18:30:50.536Z,55.04
2018-02-04T18:31:44.032Z,56.55
2018-02-04T18:32:40.566Z,55.89
2018-02-04T18:44:54.401Z,57.03
2018-02-04T18:45:56.563Z,56.62
2018-02-04T18:46:59.910Z,57.19
2018-02-04T18:51:16.999Z,57.5
2018-02-04T18:52:12.101Z,57.03
2018-02-04T18:53:24.466Z,56.08
2018-02-04T18:58:54.880Z,57.19
2018-02-04T19:07:56.462Z,56.99
2018-02-04T19:10:44.114Z,57.57
2018-02-04T19:11:25.989Z,57.19
2018-02-04T19:20:54.090Z,59.34
2018-02-04T19:21:40.925Z,59.53
2018-02-04T19:22:30.613Z,60
2018-02-04T19:23:19.865Z,60.38
2018-02-04T19:24:08.456Z,61.61
2018-02-04T19:24:57.108Z,61.05
2018-02-04T19:25:47.774Z,60.47
2018-02-04T19:26:36.111Z,60.86
2018-02-04T19:27:24.345Z,60.47
2018-02-04T19:28:14.123Z,60.38
2018-02-04T19:29:01.805Z,60.28
2018-02-04T19:32:39.618Z,61.99
2018-02-04T19:49:38.804Z,64.71
2018-02-04T19:50:27.377Z,64.9
2018-02-04T19:51:16.750Z,65
2018-02-04T19:52:04.511Z,65.09
2018-02-04T19:52:52.983Z,65.47
2018-02-04T19:53:40.934Z,66.03
2018-02-04T19:54:32.393Z,66.99
2018-02-04T19:55:21.902Z,66.03
2018-02-04T19:56:09.905Z,65.94
2018-02-04T19:57:03.768Z,65.66
2018-02-04T19:57:52.102Z,66.13
2018-02-04T20:00:27.506Z,65.28
2018-02-04T20:01:22.190Z,65.66
2018-02-04T20:02:12.306Z,66.51
2018-02-04T20:03:08.866Z,67.18
2018-02-04T20:19:52.583Z,67.4
2018-02-04T20:20:43.748Z,67.49
2018-02-04T20:21:48.176Z,67.55
2018-02-04T20:39:58.208Z,69.35
2018-02-04T20:40:52.100Z,69.54
2018-02-04T20:42:50.504Z,68.98
2018-02-04T20:45:00.748Z,68.98
2018-02-04T20:52:43.562Z,68.98
2018-02-04T20:53:37.578Z,68.69
2018-02-04T20:56:23.970Z,68.98
2018-02-04T20:57:24.903Z,69.17
2018-02-04T20:58:28.558Z,69.73
2018-02-04T21:04:11.372Z,69.92
2018-02-04T21:04:59.475Z,70.11
2018-02-04T21:05:48.605Z,70.58
2018-02-04T21:06:37.111Z,70.39
2018-02-04T21:07:25.957Z,70.39
2018-02-04T21:08:14.734Z,70.01
2018-02-04T21:09:06.392Z,71.15
2018-02-04T21:09:55.904Z,70.78
2018-02-04T21:10:45.098Z,71.44
2018-02-04T21:11:33.769Z,71.81
2018-02-04T21:16:18.155Z,70.49
2018-02-04T21:17:10.294Z,71.44
2018-02-04T21:17:57.396Z,71.15
2018-02-04T21:35:41.637Z,69.2
2018-02-04T21:39:23.451Z,69.2
2018-02-04T21:41:37.030Z,69.92
2018-02-04T21:42:26.613Z,70.39
2018-02-04T21:47:47.727Z,70.58
2018-02-04T21:48:39.894Z,71.15
2018-02-04T21:49:40.083Z,70.68
2018-02-04T21:59:41.493Z,68.98
2018-02-04T22:00:31.005Z,69.07
2018-02-04T22:01:21.621Z,68.69
2018-02-04T22:02:10.391Z,69.01
2018-02-04T22:41:44.000Z,61.9
2018-02-04T22:42:36.726Z,62.18
2018-02-04T22:43:27.939Z,62.94
2018-02-04T22:45:23.532Z,63.6
2018-02-04T22:46:01.712Z,63.04
2018-02-04T22:46:43.534Z,63.7
2018-02-04T22:47:25.726Z,63.42
2018-02-04T22:48:07.302Z,63.23
2018-02-04T22:48:50.480Z,63.04
2018-02-04T22:49:31.185Z,62.85
2018-02-04T22:50:11.690Z,63.04
2018-02-04T22:50:52.886Z,62.94
2018-02-04T22:51:34.382Z,62.85
2018-02-04T22:52:15.677Z,62.37
2018-02-04T22:52:56.464Z,62.94
2018-02-04T22:53:37.747Z,62.56
2018-02-04T22:54:23.501Z,62.94
2018-02-04T22:55:03.612Z,62.59
2018-02-04T22:55:49.154Z,62.69
2018-02-04T22:56:32.685Z,62.21
2018-02-04T22:57:14.123Z,62.5
2018-02-04T22:57:54.967Z,61.93
2018-02-04T22:58:42.036Z,61.8
2018-02-04T22:59:22.264Z,62.59
2018-02-04T23:00:04.660Z,62.4
2018-02-04T23:00:45.106Z,62.59
2018-02-04T23:01:25.471Z,62.21
2018-02-04T23:02:10.171Z,61.93
2018-02-04T23:02:52.130Z,60.98
2018-02-04T23:03:34.248Z,60.89
2018-02-04T23:04:16.306Z,61.65
2018-02-04T23:04:59.010Z,61.36
2018-02-04T23:05:41.777Z,61.36
2018-02-04T23:06:22.325Z,60.7
2018-02-04T23:07:03.330Z,61.65
2018-02-04T23:07:43.719Z,61.93
2018-02-04T23:08:25.244Z,60.79
2018-02-04T23:09:06.222Z,60.5
2018-02-04T23:09:46.329Z,60.6
2018-02-04T23:10:28.192Z,61.46
2018-02-04T23:11:08.443Z,60.6
2018-02-04T23:11:49.776Z,61.33
2018-02-04T23:12:50.040Z,62.08
2018-02-04T23:19:59.762Z,60.98
2018-02-04T23:48:55.928Z,58.2
2018-02-04T23:49:43.642Z,57.5
2018-02-04T23:50:36.224Z,58.26
2018-02-04T23:52:27.926Z,58.83
2018-02-04T23:53:19.514Z,59.68
2018-02-04T23:54:07.805Z,59.21
2018-02-04T23:55:00.109Z,58.83